sensor_id;sensor_type;location;lat;lon;timestamp;temperature;humidity
8099;DHT22;4092;47.876;9.372;2023-02-10T00:01:35;-2.20;99.90
8099;DHT22;4092;47.876;9.372;2023-02-10T00:04:02;-2.30;99.90
8099;DHT22;4092;47.876;9.372;2023-02-10T00:06:30;-2.40;99.90
8099;DHT22;4092;47.876;9.372;2023-02-10T00:09:00;-2.40;99.90
8099;DHT22;4092;47.876;9.372;2023-02-10T00:11:28;-2.50;99.90
8099;DHT22;4092;47.876;9.372;2023-02-10T00:14:16;-2.40;99.90
8099;DHT22;4092;47.876;9.372;2023-02-10T00:16:43;-2.50;99.90
8099;DHT22;4092;47.876;9.372;2023-02-10T00:19:10;-2.60;99.90
8099;DHT22;4092;47.876;9.372;2023-02-10T00:21:37;-2.70;99.90
8099;DHT22;4092;47.876;9.372;2023-02-10T00:24:06;-2.70;99.90
8099;DHT22;4092;47.876;9.372;2023-02-10T00:26:33;-2.80;99.90
8099;DHT22;4092;47.876;9.372;2023-02-10T00:29:00;-2.80;99.90
8099;DHT22;4092;47.876;9.372;2023-02-10T00:31:27;-2.80;99.90
8099;DHT22;4092;47.876;9.372;2023-02-10T00:33:54;-2.80;99.90
8099;DHT22;4092;47.876;9.372;2023-02-10T00:36:21;-2.80;99.90
8099;DHT22;4092;47.876;9.372;2023-02-10T00:38:50;-2.90;99.90
8099;DHT22;4092;47.876;9.372;2023-02-10T00:41:22;-2.90;99.90
8099;DHT22;4092;47.876;9.372;2023-02-10T00:43:49;-3.10;99.90
8099;DHT22;4092;47.876;9.372;2023-02-10T00:46:17;-3.00;99.90
8099;DHT22;4092;47.876;9.372;2023-02-10T00:48:45;-2.90;99.90
8099;DHT22;4092;47.876;9.372;2023-02-10T00:51:13;-2.90;99.90
8099;DHT22;4092;47.876;9.372;2023-02-10T00:53:40;-2.90;99.90
8099;DHT22;4092;47.876;9.372;2023-02-10T00:56:08;-3.00;99.90
8099;DHT22;4092;47.876;9.372;2023-02-10T00:58:37;-3.00;99.90
8099;DHT22;4092;47.876;9.372;2023-02-10T01:01:04;-2.90;99.90
8099;DHT22;4092;47.876;9.372;2023-02-10T01:03:31;-3.00;99.90
8099;DHT22;4092;47.876;9.372;2023-02-10T01:05:58;-3.10;99.90
8099;DHT22;4092;47.876;9.372;2023-02-10T01:08:25;-3.10;99.90
8099;DHT22;4092;47.876;9.372;2023-02-10T01:10:58;-3.00;99.90
8099;DHT22;4092;47.876;9.372;2023-02-10T01:13:25;-3.00;99.90
8099;DHT22;4092;47.876;9.372;2023-02-10T01:15:54;-2.90;99.90
8099;DHT22;4092;47.876;9.372;2023-02-10T01:18:21;-2.90;99.90
8099;DHT22;4092;47.876;9.372;2023-02-10T01:20:48;-2.90;99.90
8099;DHT22;4092;47.876;9.372;2023-02-10T01:23:15;-2.90;99.90
8099;DHT22;4092;47.876;9.372;2023-02-10T01:25:42;-3.00;99.90
8099;DHT22;4092;47.876;9.372;2023-02-10T01:28:09;-2.90;99.90
8099;DHT22;4092;47.876;9.372;2023-02-10T01:30:36;-3.00;99.90
8099;DHT22;4092;47.876;9.372;2023-02-10T01:33:04;-3.10;99.90
8099;DHT22;4092;47.876;9.372;2023-02-10T01:35:31;-3.10;99.90
8099;DHT22;4092;47.876;9.372;2023-02-10T01:37:59;-3.00;99.90
8099;DHT22;4092;47.876;9.372;2023-02-10T01:40:26;-3.00;99.90
8099;DHT22;4092;47.876;9.372;2023-02-10T01:42:53;-3.00;99.90
8099;DHT22;4092;47.876;9.372;2023-02-10T01:45:24;-2.90;99.90
8099;DHT22;4092;47.876;9.372;2023-02-10T01:47:54;-2.80;99.90
8099;DHT22;4092;47.876;9.372;2023-02-10T01:50:26;-2.80;99.90
8099;DHT22;4092;47.876;9.372;2023-02-10T01:52:54;-2.80;99.90
8099;DHT22;4092;47.876;9.372;2023-02-10T01:55:24;-2.80;99.90
8099;DHT22;4092;47.876;9.372;2023-02-10T01:57:52;-2.90;99.90
8099;DHT22;4092;47.876;9.372;2023-02-10T02:00:21;-2.90;99.90
8099;DHT22;4092;47.876;9.372;2023-02-10T02:02:49;-2.90;99.90
8099;DHT22;4092;47.876;9.372;2023-02-10T02:05:27;-2.90;99.90
8099;DHT22;4092;47.876;9.372;2023-02-10T02:07:58;-3.00;99.90
8099;DHT22;4092;47.876;9.372;2023-02-10T02:10:38;-3.00;99.90
8099;DHT22;4092;47.876;9.372;2023-02-10T02:13:11;-3.10;99.90
8099;DHT22;4092;47.876;9.372;2023-02-10T02:15:46;-3.10;99.90
8099;DHT22;4092;47.876;9.372;2023-02-10T02:18:20;-3.10;99.90
8099;DHT22;4092;47.876;9.372;2023-02-10T02:21:07;-3.20;99.90
8099;DHT22;4092;47.876;9.372;2023-02-10T02:23:48;-3.30;99.90
8099;DHT22;4092;47.876;9.372;2023-02-10T02:29:47;-3.30;99.90
8099;DHT22;4092;47.876;9.372;2023-02-10T02:32:25;-3.30;99.90
8099;DHT22;4092;47.876;9.372;2023-02-10T02:34:58;-3.30;99.90
8099;DHT22;4092;47.876;9.372;2023-02-10T02:37:28;-3.40;99.90
8099;DHT22;4092;47.876;9.372;2023-02-10T02:39:55;-3.30;99.90
8099;DHT22;4092;47.876;9.372;2023-02-10T02:42:24;-3.40;99.90
8099;DHT22;4092;47.876;9.372;2023-02-10T02:44:53;-3.30;99.90
8099;DHT22;4092;47.876;9.372;2023-02-10T02:47:44;-3.20;99.90
8099;DHT22;4092;47.876;9.372;2023-02-10T02:50:23;-3.20;99.90
8099;DHT22;4092;47.876;9.372;2023-02-10T02:53:10;-3.30;99.90
8099;DHT22;4092;47.876;9.372;2023-02-10T02:55:48;-3.40;99.90
8099;DHT22;4092;47.876;9.372;2023-02-10T02:58:20;-3.40;99.90
8099;DHT22;4092;47.876;9.372;2023-02-10T03:00:50;-3.50;99.90
8099;DHT22;4092;47.876;9.372;2023-02-10T03:03:19;-3.50;99.90
8099;DHT22;4092;47.876;9.372;2023-02-10T03:05:46;-3.50;99.90
8099;DHT22;4092;47.876;9.372;2023-02-10T03:08:13;-3.60;99.90
8099;DHT22;4092;47.876;9.372;2023-02-10T03:10:40;-3.50;99.90
8099;DHT22;4092;47.876;9.372;2023-02-10T03:13:07;-3.50;99.90
8099;DHT22;4092;47.876;9.372;2023-02-10T03:15:34;-3.50;99.90
8099;DHT22;4092;47.876;9.372;2023-02-10T03:18:01;-3.30;99.90
8099;DHT22;4092;47.876;9.372;2023-02-10T03:20:30;-3.30;99.90
8099;DHT22;4092;47.876;9.372;2023-02-10T03:22:57;-3.20;99.90
8099;DHT22;4092;47.876;9.372;2023-02-10T03:25:24;-3.20;99.90
8099;DHT22;4092;47.876;9.372;2023-02-10T03:27:51;-3.20;99.90
8099;DHT22;4092;47.876;9.372;2023-02-10T03:30:18;-3.20;99.90
8099;DHT22;4092;47.876;9.372;2023-02-10T03:32:45;-3.20;99.90
8099;DHT22;4092;47.876;9.372;2023-02-10T03:35:14;-3.20;99.90
8099;DHT22;4092;47.876;9.372;2023-02-10T03:37:42;-3.30;99.90
8099;DHT22;4092;47.876;9.372;2023-02-10T03:40:10;-3.40;99.90
8099;DHT22;4092;47.876;9.372;2023-02-10T03:42:37;-3.40;99.90
8099;DHT22;4092;47.876;9.372;2023-02-10T03:45:04;-3.40;99.90
8099;DHT22;4092;47.876;9.372;2023-02-10T03:47:32;-3.40;99.90
8099;DHT22;4092;47.876;9.372;2023-02-10T03:49:58;-3.40;99.90
8099;DHT22;4092;47.876;9.372;2023-02-10T03:52:25;-3.40;99.90
8099;DHT22;4092;47.876;9.372;2023-02-10T03:54:54;-3.30;99.90
8099;DHT22;4092;47.876;9.372;2023-02-10T03:57:21;-3.30;99.90
8099;DHT22;4092;47.876;9.372;2023-02-10T03:59:48;-3.30;99.90
8099;DHT22;4092;47.876;9.372;2023-02-10T04:02:15;-3.40;99.90
8099;DHT22;4092;47.876;9.372;2023-02-10T04:04:42;-3.40;99.90
8099;DHT22;4092;47.876;9.372;2023-02-10T04:07:09;-3.50;99.90
8099;DHT22;4092;47.876;9.372;2023-02-10T04:09:35;-3.50;99.90
8099;DHT22;4092;47.876;9.372;2023-02-10T04:12:04;-3.50;99.90
8099;DHT22;4092;47.876;9.372;2023-02-10T04:14:31;-3.30;99.90
8099;DHT22;4092;47.876;9.372;2023-02-10T04:16:58;-3.30;99.90
8099;DHT22;4092;47.876;9.372;2023-02-10T04:19:26;-3.20;99.90
8099;DHT22;4092;47.876;9.372;2023-02-10T04:21:52;-3.30;99.90
8099;DHT22;4092;47.876;9.372;2023-02-10T04:24:20;-3.30;99.90
8099;DHT22;4092;47.876;9.372;2023-02-10T04:26:47;-3.30;99.90
8099;DHT22;4092;47.876;9.372;2023-02-10T04:29:15;-3.30;99.90
8099;DHT22;4092;47.876;9.372;2023-02-10T04:31:42;-3.20;99.90
8099;DHT22;4092;47.876;9.372;2023-02-10T04:34:09;-3.20;99.90
8099;DHT22;4092;47.876;9.372;2023-02-10T04:36:36;-3.20;99.90
8099;DHT22;4092;47.876;9.372;2023-02-10T04:39:03;-3.30;99.90
8099;DHT22;4092;47.876;9.372;2023-02-10T04:41:30;-3.30;99.90
8099;DHT22;4092;47.876;9.372;2023-02-10T04:43:57;-3.40;99.90
8099;DHT22;4092;47.876;9.372;2023-02-10T04:46:25;-3.30;99.90
8099;DHT22;4092;47.876;9.372;2023-02-10T04:48:52;-3.40;99.90
8099;DHT22;4092;47.876;9.372;2023-02-10T04:51:19;-3.40;99.90
8099;DHT22;4092;47.876;9.372;2023-02-10T04:53:46;-3.40;99.90
8099;DHT22;4092;47.876;9.372;2023-02-10T04:56:14;-3.40;99.90
8099;DHT22;4092;47.876;9.372;2023-02-10T04:58:41;-3.40;99.90
8099;DHT22;4092;47.876;9.372;2023-02-10T05:01:08;-3.40;99.90
8099;DHT22;4092;47.876;9.372;2023-02-10T05:03:37;-3.40;99.90
8099;DHT22;4092;47.876;9.372;2023-02-10T05:06:08;-3.40;99.90
8099;DHT22;4092;47.876;9.372;2023-02-10T05:08:35;-3.50;99.90
8099;DHT22;4092;47.876;9.372;2023-02-10T05:11:07;-3.40;99.90
8099;DHT22;4092;47.876;9.372;2023-02-10T05:13:34;-3.40;99.90
8099;DHT22;4092;47.876;9.372;2023-02-10T05:16:02;-3.40;99.90
8099;DHT22;4092;47.876;9.372;2023-02-10T05:18:29;-3.40;99.90
8099;DHT22;4092;47.876;9.372;2023-02-10T05:20:58;-3.40;99.90
8099;DHT22;4092;47.876;9.372;2023-02-10T05:23:25;-3.40;99.90
8099;DHT22;4092;47.876;9.372;2023-02-10T05:25:53;-3.40;99.90
8099;DHT22;4092;47.876;9.372;2023-02-10T05:28:20;-3.40;99.90
8099;DHT22;4092;47.876;9.372;2023-02-10T05:30:47;-3.40;99.90
8099;DHT22;4092;47.876;9.372;2023-02-10T05:33:15;-3.40;99.90
8099;DHT22;4092;47.876;9.372;2023-02-10T05:35:42;-3.50;99.90
8099;DHT22;4092;47.876;9.372;2023-02-10T05:38:10;-3.60;99.90
8099;DHT22;4092;47.876;9.372;2023-02-10T05:40:38;-3.60;99.90
8099;DHT22;4092;47.876;9.372;2023-02-10T05:43:07;-3.60;99.90
8099;DHT22;4092;47.876;9.372;2023-02-10T05:45:35;-3.70;99.90
8099;DHT22;4092;47.876;9.372;2023-02-10T05:48:03;-3.70;99.90
8099;DHT22;4092;47.876;9.372;2023-02-10T05:50:30;-3.60;99.90
8099;DHT22;4092;47.876;9.372;2023-02-10T05:52:57;-3.60;99.90
8099;DHT22;4092;47.876;9.372;2023-02-10T05:55:26;-3.60;99.90
8099;DHT22;4092;47.876;9.372;2023-02-10T05:57:53;-3.60;99.90
8099;DHT22;4092;47.876;9.372;2023-02-10T06:00:20;-3.60;99.90
8099;DHT22;4092;47.876;9.372;2023-02-10T06:02:47;-3.60;99.90
8099;DHT22;4092;47.876;9.372;2023-02-10T06:05:14;-3.60;99.90
8099;DHT22;4092;47.876;9.372;2023-02-10T06:07:41;-3.50;99.90
8099;DHT22;4092;47.876;9.372;2023-02-10T06:10:08;-3.50;99.90
8099;DHT22;4092;47.876;9.372;2023-02-10T06:12:36;-3.50;99.90
8099;DHT22;4092;47.876;9.372;2023-02-10T06:15:04;-3.50;99.90
8099;DHT22;4092;47.876;9.372;2023-02-10T06:17:31;-3.60;99.90
8099;DHT22;4092;47.876;9.372;2023-02-10T06:19:58;-3.60;99.90
8099;DHT22;4092;47.876;9.372;2023-02-10T06:22:25;-3.70;99.90
8099;DHT22;4092;47.876;9.372;2023-02-10T06:24:52;-3.70;99.90
8099;DHT22;4092;47.876;9.372;2023-02-10T06:27:19;-3.70;99.90
8099;DHT22;4092;47.876;9.372;2023-02-10T06:29:47;-3.80;99.90
8099;DHT22;4092;47.876;9.372;2023-02-10T06:32:14;-3.70;99.90
8099;DHT22;4092;47.876;9.372;2023-02-10T06:34:42;-3.70;99.90
8099;DHT22;4092;47.876;9.372;2023-02-10T06:37:11;-3.70;99.90
8099;DHT22;4092;47.876;9.372;2023-02-10T06:39:38;-3.60;99.90
8099;DHT22;4092;47.876;9.372;2023-02-10T06:42:06;-3.50;99.90
8099;DHT22;4092;47.876;9.372;2023-02-10T06:44:33;-3.50;99.90
8099;DHT22;4092;47.876;9.372;2023-02-10T06:47:01;-3.40;99.90
8099;DHT22;4092;47.876;9.372;2023-02-10T06:49:28;-3.40;99.90
8099;DHT22;4092;47.876;9.372;2023-02-10T06:51:55;-3.30;99.90
8099;DHT22;4092;47.876;9.372;2023-02-10T06:54:22;-3.30;99.90
8099;DHT22;4092;47.876;9.372;2023-02-10T06:56:49;-3.20;99.90
8099;DHT22;4092;47.876;9.372;2023-02-10T06:59:16;-3.30;99.90
8099;DHT22;4092;47.876;9.372;2023-02-10T07:01:43;-3.30;99.90
8099;DHT22;4092;47.876;9.372;2023-02-10T07:04:11;-3.30;99.90
8099;DHT22;4092;47.876;9.372;2023-02-10T07:06:39;-3.30;99.90
8099;DHT22;4092;47.876;9.372;2023-02-10T07:09:06;-3.30;99.90
8099;DHT22;4092;47.876;9.372;2023-02-10T07:11:33;-3.30;99.90
8099;DHT22;4092;47.876;9.372;2023-02-10T07:14:00;-3.30;99.90
8099;DHT22;4092;47.876;9.372;2023-02-10T07:16:27;-3.30;99.90
8099;DHT22;4092;47.876;9.372;2023-02-10T07:18:56;-3.30;99.90
8099;DHT22;4092;47.876;9.372;2023-02-10T07:21:24;-3.30;99.90
8099;DHT22;4092;47.876;9.372;2023-02-10T07:23:51;-3.20;99.90
8099;DHT22;4092;47.876;9.372;2023-02-10T07:26:18;-3.20;99.90
8099;DHT22;4092;47.876;9.372;2023-02-10T07:28:46;-3.20;99.90
8099;DHT22;4092;47.876;9.372;2023-02-10T07:31:13;-3.20;99.90
8099;DHT22;4092;47.876;9.372;2023-02-10T07:33:40;-3.10;99.90
8099;DHT22;4092;47.876;9.372;2023-02-10T07:36:08;-2.90;99.90
8099;DHT22;4092;47.876;9.372;2023-02-10T07:38:36;-2.90;99.90
8099;DHT22;4092;47.876;9.372;2023-02-10T07:41:03;-2.90;99.90
8099;DHT22;4092;47.876;9.372;2023-02-10T07:43:31;-2.70;99.90
8099;DHT22;4092;47.876;9.372;2023-02-10T07:45:58;-2.60;99.90
8099;DHT22;4092;47.876;9.372;2023-02-10T07:48:25;-2.50;99.90
8099;DHT22;4092;47.876;9.372;2023-02-10T07:50:52;-2.40;99.90
8099;DHT22;4092;47.876;9.372;2023-02-10T07:53:19;-2.30;99.90
8099;DHT22;4092;47.876;9.372;2023-02-10T07:55:48;-2.20;99.90
8099;DHT22;4092;47.876;9.372;2023-02-10T07:58:15;-2.10;99.90
8099;DHT22;4092;47.876;9.372;2023-02-10T08:00:42;-1.90;99.90
8099;DHT22;4092;47.876;9.372;2023-02-10T08:03:12;-1.80;99.90
8099;DHT22;4092;47.876;9.372;2023-02-10T08:05:39;-1.60;99.90
8099;DHT22;4092;47.876;9.372;2023-02-10T08:08:07;-1.60;99.90
8099;DHT22;4092;47.876;9.372;2023-02-10T08:10:36;-1.40;99.90
8099;DHT22;4092;47.876;9.372;2023-02-10T08:13:04;-1.30;99.90
8099;DHT22;4092;47.876;9.372;2023-02-10T08:15:32;-1.20;99.90
8099;DHT22;4092;47.876;9.372;2023-02-10T08:17:59;-1.10;99.90
8099;DHT22;4092;47.876;9.372;2023-02-10T08:20:26;-1.00;99.90
8099;DHT22;4092;47.876;9.372;2023-02-10T08:22:54;-0.90;99.90
8099;DHT22;4092;47.876;9.372;2023-02-10T08:25:21;-0.80;99.90
8099;DHT22;4092;47.876;9.372;2023-02-10T08:27:48;-0.80;99.90
8099;DHT22;4092;47.876;9.372;2023-02-10T08:30:17;-0.70;99.90
8099;DHT22;4092;47.876;9.372;2023-02-10T08:32:44;-0.60;99.90
8099;DHT22;4092;47.876;9.372;2023-02-10T08:35:11;-0.50;99.90
8099;DHT22;4092;47.876;9.372;2023-02-10T08:37:38;-0.50;99.90
8099;DHT22;4092;47.876;9.372;2023-02-10T08:40:06;-0.40;99.90
8099;DHT22;4092;47.876;9.372;2023-02-10T08:42:33;-0.30;99.90
8099;DHT22;4092;47.876;9.372;2023-02-10T08:45:00;-0.20;99.90
8099;DHT22;4092;47.876;9.372;2023-02-10T08:47:29;-0.20;99.90
8099;DHT22;4092;47.876;9.372;2023-02-10T08:49:56;-0.10;99.90
8099;DHT22;4092;47.876;9.372;2023-02-10T08:52:23;-0.10;99.90
8099;DHT22;4092;47.876;9.372;2023-02-10T08:54:50;0.00;99.90
8099;DHT22;4092;47.876;9.372;2023-02-10T08:57:18;0.10;99.90
8099;DHT22;4092;47.876;9.372;2023-02-10T08:59:45;0.10;99.90
8099;DHT22;4092;47.876;9.372;2023-02-10T09:02:13;0.10;99.90
8099;DHT22;4092;47.876;9.372;2023-02-10T09:04:41;0.20;99.90
8099;DHT22;4092;47.876;9.372;2023-02-10T09:07:08;0.20;99.90
8099;DHT22;4092;47.876;9.372;2023-02-10T09:09:38;0.30;99.90
8099;DHT22;4092;47.876;9.372;2023-02-10T09:12:05;0.30;99.90
8099;DHT22;4092;47.876;9.372;2023-02-10T09:14:33;0.30;99.90
8099;DHT22;4092;47.876;9.372;2023-02-10T09:17:00;0.40;99.90
8099;DHT22;4092;47.876;9.372;2023-02-10T09:19:27;0.40;99.90
8099;DHT22;4092;47.876;9.372;2023-02-10T09:21:55;0.50;99.90
8099;DHT22;4092;47.876;9.372;2023-02-10T09:24:23;0.60;99.90
8099;DHT22;4092;47.876;9.372;2023-02-10T09:26:50;0.70;99.90
8099;DHT22;4092;47.876;9.372;2023-02-10T09:29:17;0.80;99.90
8099;DHT22;4092;47.876;9.372;2023-02-10T09:31:44;0.90;99.90
8099;DHT22;4092;47.876;9.372;2023-02-10T09:34:11;1.00;99.90
8099;DHT22;4092;47.876;9.372;2023-02-10T09:36:38;1.00;99.90
8099;DHT22;4092;47.876;9.372;2023-02-10T09:39:06;1.10;99.90
8099;DHT22;4092;47.876;9.372;2023-02-10T09:41:46;1.20;99.90
8099;DHT22;4092;47.876;9.372;2023-02-10T09:44:16;1.30;99.90
8099;DHT22;4092;47.876;9.372;2023-02-10T09:52:49;1.40;99.90
8099;DHT22;4092;47.876;9.372;2023-02-10T09:55:26;1.40;99.90
8099;DHT22;4092;47.876;9.372;2023-02-10T09:57:57;1.50;99.90
8099;DHT22;4092;47.876;9.372;2023-02-10T10:00:28;1.60;99.90
8099;DHT22;4092;47.876;9.372;2023-02-10T10:02:56;1.70;99.90
8099;DHT22;4092;47.876;9.372;2023-02-10T10:05:36;1.70;99.90
8099;DHT22;4092;47.876;9.372;2023-02-10T10:08:04;1.80;99.90
8099;DHT22;4092;47.876;9.372;2023-02-10T10:10:39;1.90;99.90
8099;DHT22;4092;47.876;9.372;2023-02-10T10:13:13;1.80;99.90
8099;DHT22;4092;47.876;9.372;2023-02-10T10:15:44;1.90;99.90
8099;DHT22;4092;47.876;9.372;2023-02-10T10:18:18;2.00;99.90
8099;DHT22;4092;47.876;9.372;2023-02-10T10:20:51;2.20;99.90
8099;DHT22;4092;47.876;9.372;2023-02-10T10:23:42;2.20;99.90
8099;DHT22;4092;47.876;9.372;2023-02-10T10:26:36;2.40;99.90
8099;DHT22;4092;47.876;9.372;2023-02-10T10:29:19;2.60;99.90
8099;DHT22;4092;47.876;9.372;2023-02-10T10:31:49;2.70;99.90
8099;DHT22;4092;47.876;9.372;2023-02-10T10:34:19;2.90;99.90
8099;DHT22;4092;47.876;9.372;2023-02-10T10:36:48;2.90;99.90
8099;DHT22;4092;47.876;9.372;2023-02-10T10:39:30;3.00;99.90
8099;DHT22;4092;47.876;9.372;2023-02-10T10:42:02;3.20;99.90
8099;DHT22;4092;47.876;9.372;2023-02-10T10:44:31;3.30;99.90
8099;DHT22;4092;47.876;9.372;2023-02-10T10:47:04;3.30;99.90
8099;DHT22;4092;47.876;9.372;2023-02-10T10:49:34;3.30;99.90
8099;DHT22;4092;47.876;9.372;2023-02-10T10:52:02;3.40;99.90
8099;DHT22;4092;47.876;9.372;2023-02-10T10:54:30;3.40;99.90
8099;DHT22;4092;47.876;9.372;2023-02-10T10:57:02;3.40;99.90
8099;DHT22;4092;47.876;9.372;2023-02-10T10:59:35;3.50;99.90
8099;DHT22;4092;47.876;9.372;2023-02-10T11:02:14;3.60;99.90
8099;DHT22;4092;47.876;9.372;2023-02-10T11:04:42;3.80;99.90
8099;DHT22;4092;47.876;9.372;2023-02-10T11:07:12;3.80;99.90
8099;DHT22;4092;47.876;9.372;2023-02-10T11:09:41;3.80;99.90
8099;DHT22;4092;47.876;9.372;2023-02-10T11:12:18;3.90;99.90
8099;DHT22;4092;47.876;9.372;2023-02-10T11:14:48;4.00;99.90
8099;DHT22;4092;47.876;9.372;2023-02-10T11:17:22;3.90;99.90
8099;DHT22;4092;47.876;9.372;2023-02-10T11:19:56;4.00;99.90
8099;DHT22;4092;47.876;9.372;2023-02-10T11:22:24;4.10;99.90
8099;DHT22;4092;47.876;9.372;2023-02-10T11:24:53;4.20;99.90
8099;DHT22;4092;47.876;9.372;2023-02-10T11:27:22;4.20;99.90
8099;DHT22;4092;47.876;9.372;2023-02-10T11:29:50;4.30;99.90
8099;DHT22;4092;47.876;9.372;2023-02-10T11:32:19;4.50;99.90
8099;DHT22;4092;47.876;9.372;2023-02-10T11:34:48;4.50;99.90
8099;DHT22;4092;47.876;9.372;2023-02-10T11:37:22;4.50;99.90
8099;DHT22;4092;47.876;9.372;2023-02-10T11:39:51;4.50;99.90
8099;DHT22;4092;47.876;9.372;2023-02-10T11:42:23;4.60;99.90
8099;DHT22;4092;47.876;9.372;2023-02-10T11:44:57;4.60;99.90
8099;DHT22;4092;47.876;9.372;2023-02-10T11:47:26;4.70;99.90
8099;DHT22;4092;47.876;9.372;2023-02-10T11:49:53;4.90;99.90
8099;DHT22;4092;47.876;9.372;2023-02-10T11:52:22;4.90;99.90
8099;DHT22;4092;47.876;9.372;2023-02-10T11:54:50;5.00;99.90
8099;DHT22;4092;47.876;9.372;2023-02-10T11:57:26;5.10;99.90
8099;DHT22;4092;47.876;9.372;2023-02-10T12:00:19;5.40;99.90
8099;DHT22;4092;47.876;9.372;2023-02-10T12:03:21;5.30;99.90
8099;DHT22;4092;47.876;9.372;2023-02-10T12:05:54;5.20;99.90
8099;DHT22;4092;47.876;9.372;2023-02-10T12:08:31;5.20;99.90
8099;DHT22;4092;47.876;9.372;2023-02-10T12:11:02;5.40;99.90
8099;DHT22;4092;47.876;9.372;2023-02-10T12:13:40;5.20;99.90
8099;DHT22;4092;47.876;9.372;2023-02-10T12:16:15;5.30;99.90
8099;DHT22;4092;47.876;9.372;2023-02-10T12:18:53;5.50;99.90
8099;DHT22;4092;47.876;9.372;2023-02-10T12:21:37;5.50;99.90
8099;DHT22;4092;47.876;9.372;2023-02-10T12:24:34;5.80;99.90
8099;DHT22;4092;47.876;9.372;2023-02-10T12:27:07;5.90;99.90
8099;DHT22;4092;47.876;9.372;2023-02-10T12:29:48;6.00;99.90
8099;DHT22;4092;47.876;9.372;2023-02-10T12:32:29;6.10;99.90
8099;DHT22;4092;47.876;9.372;2023-02-10T12:35:15;6.20;99.90
8099;DHT22;4092;47.876;9.372;2023-02-10T12:37:51;6.20;99.90
8099;DHT22;4092;47.876;9.372;2023-02-10T12:40:34;6.30;99.90
8099;DHT22;4092;47.876;9.372;2023-02-10T12:43:13;6.30;99.90
8099;DHT22;4092;47.876;9.372;2023-02-10T12:45:46;6.40;99.90
8099;DHT22;4092;47.876;9.372;2023-02-10T12:48:24;6.50;99.90
8099;DHT22;4092;47.876;9.372;2023-02-10T12:51:08;6.40;99.90
8099;DHT22;4092;47.876;9.372;2023-02-10T12:53:41;6.50;99.90
8099;DHT22;4092;47.876;9.372;2023-02-10T12:56:14;6.70;99.90
8099;DHT22;4092;47.876;9.372;2023-02-10T12:58:46;6.50;99.90
8099;DHT22;4092;47.876;9.372;2023-02-10T13:01:21;6.40;99.90
8099;DHT22;4092;47.876;9.372;2023-02-10T13:03:51;6.40;99.90
8099;DHT22;4092;47.876;9.372;2023-02-10T13:06:27;6.40;99.90
8099;DHT22;4092;47.876;9.372;2023-02-10T13:08:58;6.50;99.90
8099;DHT22;4092;47.876;9.372;2023-02-10T13:11:34;6.40;99.90
8099;DHT22;4092;47.876;9.372;2023-02-10T13:14:04;6.70;99.90
8099;DHT22;4092;47.876;9.372;2023-02-10T13:16:36;6.90;99.90
8099;DHT22;4092;47.876;9.372;2023-02-10T13:19:08;7.00;99.90
8099;DHT22;4092;47.876;9.372;2023-02-10T13:21:47;7.00;99.90
8099;DHT22;4092;47.876;9.372;2023-02-10T13:24:19;6.80;99.90
8099;DHT22;4092;47.876;9.372;2023-02-10T13:26:58;6.70;99.90
8099;DHT22;4092;47.876;9.372;2023-02-10T13:29:35;6.80;99.90
8099;DHT22;4092;47.876;9.372;2023-02-10T13:32:19;7.00;99.90
8099;DHT22;4092;47.876;9.372;2023-02-10T13:34:50;7.00;99.90
8099;DHT22;4092;47.876;9.372;2023-02-10T13:37:27;7.00;99.90
8099;DHT22;4092;47.876;9.372;2023-02-10T13:39:57;7.10;99.90
8099;DHT22;4092;47.876;9.372;2023-02-10T13:42:27;7.40;99.90
8099;DHT22;4092;47.876;9.372;2023-02-10T13:45:00;7.60;99.90
8099;DHT22;4092;47.876;9.372;2023-02-10T13:47:35;7.90;99.90
8099;DHT22;4092;47.876;9.372;2023-02-10T13:50:07;8.10;99.90
8099;DHT22;4092;47.876;9.372;2023-02-10T13:52:50;8.10;99.90
8099;DHT22;4092;47.876;9.372;2023-02-10T13:58:32;8.60;99.90
8099;DHT22;4092;47.876;9.372;2023-02-10T14:01:00;8.90;99.90
8099;DHT22;4092;47.876;9.372;2023-02-10T14:03:30;8.90;99.90
8099;DHT22;4092;47.876;9.372;2023-02-10T14:05:59;8.80;99.90
8099;DHT22;4092;47.876;9.372;2023-02-10T14:08:30;8.40;99.90
8099;DHT22;4092;47.876;9.372;2023-02-10T14:10:59;8.40;99.90
8099;DHT22;4092;47.876;9.372;2023-02-10T14:13:29;8.20;99.90
8099;DHT22;4092;47.876;9.372;2023-02-10T14:16:00;8.20;99.90
8099;DHT22;4092;47.876;9.372;2023-02-10T14:18:30;8.20;99.90
8099;DHT22;4092;47.876;9.372;2023-02-10T14:21:00;8.20;99.90
8099;DHT22;4092;47.876;9.372;2023-02-10T14:23:30;8.40;99.90
8099;DHT22;4092;47.876;9.372;2023-02-10T14:25:59;8.50;99.90
8099;DHT22;4092;47.876;9.372;2023-02-10T14:28:29;8.20;99.90
8099;DHT22;4092;47.876;9.372;2023-02-10T14:31:00;8.10;99.90
8099;DHT22;4092;47.876;9.372;2023-02-10T14:33:31;8.20;99.90
8099;DHT22;4092;47.876;9.372;2023-02-10T14:36:00;8.30;99.90
8099;DHT22;4092;47.876;9.372;2023-02-10T14:38:29;8.20;99.90
8099;DHT22;4092;47.876;9.372;2023-02-10T14:40:58;8.30;99.90
8099;DHT22;4092;47.876;9.372;2023-02-10T14:43:28;8.30;99.90
8099;DHT22;4092;47.876;9.372;2023-02-10T14:45:57;8.60;99.90
8099;DHT22;4092;47.876;9.372;2023-02-10T14:48:26;8.80;99.90
8099;DHT22;4092;47.876;9.372;2023-02-10T14:51:03;8.90;99.90
8099;DHT22;4092;47.876;9.372;2023-02-10T14:53:33;9.10;99.90
8099;DHT22;4092;47.876;9.372;2023-02-10T14:56:03;9.20;99.90
8099;DHT22;4092;47.876;9.372;2023-02-10T14:58:31;9.40;99.90
8099;DHT22;4092;47.876;9.372;2023-02-10T15:01:03;9.30;99.90
8099;DHT22;4092;47.876;9.372;2023-02-10T15:03:31;9.20;99.90
8099;DHT22;4092;47.876;9.372;2023-02-10T15:06:00;9.10;99.90
8099;DHT22;4092;47.876;9.372;2023-02-10T15:08:34;8.80;99.90
8099;DHT22;4092;47.876;9.372;2023-02-10T15:11:06;8.80;99.90
8099;DHT22;4092;47.876;9.372;2023-02-10T15:13:39;8.90;99.90
8099;DHT22;4092;47.876;9.372;2023-02-10T15:16:08;9.00;99.90
8099;DHT22;4092;47.876;9.372;2023-02-10T15:18:40;9.20;99.90
8099;DHT22;4092;47.876;9.372;2023-02-10T15:21:30;9.40;99.90
8099;DHT22;4092;47.876;9.372;2023-02-10T15:23:58;9.70;99.90
8099;DHT22;4092;47.876;9.372;2023-02-10T15:26:26;10.10;99.90
8099;DHT22;4092;47.876;9.372;2023-02-10T15:29:07;10.40;99.90
8099;DHT22;4092;47.876;9.372;2023-02-10T15:31:35;10.60;99.90
8099;DHT22;4092;47.876;9.372;2023-02-10T15:34:13;10.60;99.90
8099;DHT22;4092;47.876;9.372;2023-02-10T15:36:47;10.50;99.90
8099;DHT22;4092;47.876;9.372;2023-02-10T15:39:21;10.60;99.90
8099;DHT22;4092;47.876;9.372;2023-02-10T15:42:00;10.80;99.30
8099;DHT22;4092;47.876;9.372;2023-02-10T15:44:31;10.70;99.80
8099;DHT22;4092;47.876;9.372;2023-02-10T15:47:42;10.60;99.90
8099;DHT22;4092;47.876;9.372;2023-02-10T15:50:10;10.30;99.90
8099;DHT22;4092;47.876;9.372;2023-02-10T15:52:41;10.00;99.90
8099;DHT22;4092;47.876;9.372;2023-02-10T15:55:17;9.60;99.90
8099;DHT22;4092;47.876;9.372;2023-02-10T15:57:45;8.80;99.90
8099;DHT22;4092;47.876;9.372;2023-02-10T16:00:18;8.40;99.90
8099;DHT22;4092;47.876;9.372;2023-02-10T16:02:45;7.80;99.90
8099;DHT22;4092;47.876;9.372;2023-02-10T16:05:13;7.30;99.90
8099;DHT22;4092;47.876;9.372;2023-02-10T16:07:41;6.80;99.90
8099;DHT22;4092;47.876;9.372;2023-02-10T16:10:13;6.20;99.90
8099;DHT22;4092;47.876;9.372;2023-02-10T16:12:42;5.70;99.90
8099;DHT22;4092;47.876;9.372;2023-02-10T16:15:12;5.30;99.90
8099;DHT22;4092;47.876;9.372;2023-02-10T16:17:43;4.90;99.90
8099;DHT22;4092;47.876;9.372;2023-02-10T16:20:15;4.50;99.90
8099;DHT22;4092;47.876;9.372;2023-02-10T16:22:46;4.30;99.90
8099;DHT22;4092;47.876;9.372;2023-02-10T16:25:13;4.00;99.90
8099;DHT22;4092;47.876;9.372;2023-02-10T16:27:41;3.90;99.90
8099;DHT22;4092;47.876;9.372;2023-02-10T16:30:14;3.70;99.90
8099;DHT22;4092;47.876;9.372;2023-02-10T16:32:41;3.50;99.90
8099;DHT22;4092;47.876;9.372;2023-02-10T16:35:09;3.40;99.90
8099;DHT22;4092;47.876;9.372;2023-02-10T16:37:36;3.40;99.90
8099;DHT22;4092;47.876;9.372;2023-02-10T16:40:06;3.20;99.90
8099;DHT22;4092;47.876;9.372;2023-02-10T16:42:33;3.00;99.90